Time;durP1;ratioP1;P1;durP2;ratioP2;P2;SDS_P1;SDS_P2;PMS_P1;PMS_P2;Temp;Humidity;BMP_temperature;BMP_pressure;BME280_temperature;BME280_humidity;BME280_pressure;Samples;Min_cycle;Max_cycle;Signal;HPM_P1;HPM_P2
2022/03/12 00:01:42;;;;;;;19.33;15.87;;;5.40;57.10;;;;;;5014579;28;20210;-66
2022/03/12 00:04:08;;;;;;;18.43;15.00;;;5.40;56.60;;;;;;5013765;28;20949;-66
2022/03/12 00:06:34;;;;;;;18.20;15.23;;;5.40;56.40;;;;;;5014982;28;20167;-65
2022/03/12 00:08:59;;;;;;;18.13;14.30;;;5.40;57.20;;;;;;5014204;28;20454;-65
2022/03/12 00:11:27;;;;;;;19.40;15.37;;;5.40;57.80;;;;;;5013952;28;20476;-66
2022/03/12 00:13:54;;;;;;;19.03;15.83;;;5.50;57.50;;;;;;5013799;28;20182;-66
2022/03/12 00:16:25;;;;;;;18.40;14.37;;;5.50;57.70;;;;;;5014227;28;20773;-66
2022/03/12 00:18:58;;;;;;;23.17;15.80;;;5.50;57.50;;;;;;5014384;28;20461;-66
2022/03/12 00:21:25;;;;;;;19.33;14.47;;;5.60;57.50;;;;;;5012982;28;20462;-66
2022/03/12 00:23:53;;;;;;;22.17;19.03;;;5.70;57.90;;;;;;5014083;28;20488;-66
2022/03/12 00:26:22;;;;;;;19.47;14.87;;;5.70;57.60;;;;;;5013833;28;20803;-66
2022/03/12 00:28:48;;;;;;;26.17;16.37;;;5.70;57.10;;;;;;5014098;28;20824;-65
2022/03/12 00:31:14;;;;;;;21.83;15.07;;;5.70;58.60;;;;;;5013621;28;20453;-64
2022/03/12 00:33:39;;;;;;;17.57;13.80;;;5.70;59.70;;;;;;5013853;28;20536;-66
2022/03/12 00:36:05;;;;;;;18.20;14.47;;;5.70;59.10;;;;;;5013626;28;20436;-66
2022/03/12 00:38:31;;;;;;;20.80;16.00;;;5.70;59.30;;;;;;5014544;28;20206;-65
2022/03/12 00:40:57;;;;;;;26.03;15.20;;;5.60;59.40;;;;;;5013497;28;20461;-66
2022/03/12 00:43:23;;;;;;;18.50;15.03;;;5.60;59.20;;;;;;5013467;28;20187;-66
2022/03/12 00:45:49;;;;;;;17.97;15.10;;;5.50;58.10;;;;;;5013861;28;20186;-66
2022/03/12 00:48:16;;;;;;;19.53;14.90;;;5.50;58.40;;;;;;5013240;28;20450;-65
2022/03/12 00:50:42;;;;;;;19.87;14.83;;;5.60;58.70;;;;;;5013572;28;20906;-65
2022/03/12 00:53:08;;;;;;;20.50;14.27;;;5.60;59.20;;;;;;5013558;28;20864;-65
2022/03/12 00:55:34;;;;;;;27.77;15.90;;;5.50;59.80;;;;;;5013425;28;20457;-66
2022/03/12 00:57:59;;;;;;;19.53;14.93;;;5.50;59.70;;;;;;5013723;28;20210;-66
2022/03/12 01:00:26;;;;;;;16.23;13.60;;;5.40;59.10;;;;;;5013676;28;20437;-65
2022/03/12 01:02:52;;;;;;;17.80;13.60;;;5.40;59.30;;;;;;5013016;28;20250;-66
2022/03/12 01:05:22;;;;;;;21.17;14.50;;;5.30;58.80;;;;;;5013386;28;20517;-66
2022/03/12 01:07:48;;;;;;;20.63;15.00;;;5.10;58.80;;;;;;5012727;28;20218;-65
2022/03/12 01:10:14;;;;;;;24.63;13.73;;;5.00;59.20;;;;;;5013169;28;20980;-66
2022/03/12 01:12:40;;;;;;;21.27;16.23;;;5.00;59.40;;;;;;5013051;28;20430;-66
2022/03/12 01:15:07;;;;;;;19.10;13.80;;;4.90;59.60;;;;;;5011280;28;20906;-66
2022/03/12 01:17:33;;;;;;;17.03;13.87;;;4.90;59.80;;;;;;5010692;28;20480;-66
2022/03/12 01:20:05;;;;;;;18.97;14.20;;;4.90;59.90;;;;;;5006890;28;20434;-65
2022/03/12 01:22:33;;;;;;;20.27;15.70;;;4.90;59.90;;;;;;5012949;28;20461;-64
2022/03/12 01:24:58;;;;;;;17.80;15.03;;;5.00;60.00;;;;;;5013060;28;21044;-66
2022/03/12 01:27:24;;;;;;;21.00;15.33;;;5.00;61.00;;;;;;5012757;28;20537;-66
2022/03/12 01:29:49;;;;;;;17.97;14.00;;;5.00;60.50;;;;;;5012962;28;20175;-66
2022/03/12 01:32:15;;;;;;;18.77;13.20;;;4.90;60.40;;;;;;5012442;28;20182;-66
2022/03/12 01:34:40;;;;;;;15.10;13.17;;;4.80;60.80;;;;;;5012778;28;20231;-66
2022/03/12 01:37:07;;;;;;;18.90;14.20;;;4.80;61.00;;;;;;5012845;28;20210;-66
2022/03/12 01:39:33;;;;;;;19.07;13.43;;;4.70;61.80;;;;;;5012622;28;20174;-66
2022/03/12 01:41:58;;;;;;;21.27;14.03;;;4.70;62.50;;;;;;5012319;28;20463;-66
2022/03/12 01:44:24;;;;;;;22.50;14.73;;;4.70;62.90;;;;;;5012994;28;20247;-64
2022/03/12 01:46:50;;;;;;;16.73;14.53;;;4.70;62.70;;;;;;5012251;28;20189;-65
2022/03/12 01:49:19;;;;;;;19.10;14.93;;;4.70;62.60;;;;;;5017619;28;20209;-68
2022/03/12 01:51:46;;;;;;;17.93;13.40;;;4.70;63.10;;;;;;5018548;28;20189;-65
2022/03/12 01:54:16;;;;;;;15.70;13.53;;;4.60;62.30;;;;;;5012204;28;20473;-65
2022/03/12 01:56:41;;;;;;;20.67;14.00;;;4.70;62.30;;;;;;5012104;28;20483;-69
2022/03/12 01:59:07;;;;;;;16.70;12.23;;;4.70;62.00;;;;;;5012363;28;20433;-68
2022/03/12 02:01:33;;;;;;;15.10;12.00;;;4.70;61.80;;;;;;5012449;28;20276;-66
2022/03/12 02:04:04;;;;;;;16.23;13.37;;;4.80;62.00;;;;;;5011968;28;20167;-65
2022/03/12 02:06:29;;;;;;;18.17;12.77;;;4.80;61.70;;;;;;5012031;28;20698;-66
2022/03/12 02:08:58;;;;;;;17.27;13.77;;;4.90;61.30;;;;;;5011571;28;20450;-66
2022/03/12 02:11:27;;;;;;;16.97;12.83;;;5.00;61.20;;;;;;5011020;28;20190;-66
2022/03/12 02:14:02;;;;;;;19.03;12.10;;;5.00;61.00;;;;;;5010036;28;20453;-67
2022/03/12 02:16:28;;;;;;;14.40;12.30;;;5.00;59.80;;;;;;5011337;28;20437;-65
2022/03/12 02:18:55;;;;;;;23.10;12.77;;;4.90;59.70;;;;;;4997171;28;20450;-66
2022/03/12 02:21:30;;;;;;;14.37;12.67;;;4.80;60.40;;;;;;5016170;28;20472;-69
2022/03/12 02:23:55;;;;;;;23.70;15.13;;;4.70;60.20;;;;;;5011836;28;20483;-66
2022/03/12 02:26:21;;;;;;;19.40;12.20;;;4.60;59.90;;;;;;5011406;28;20465;-66
2022/03/12 02:28:46;;;;;;;13.80;12.07;;;4.60;60.60;;;;;;5010833;28;20194;-66
2022/03/12 02:31:14;;;;;;;19.87;13.20;;;4.50;60.80;;;;;;5011934;28;20554;-66
2022/03/12 02:33:41;;;;;;;17.10;11.87;;;4.60;61.70;;;;;;5011423;28;20173;-66
2022/03/12 02:36:06;;;;;;;15.63;11.90;;;4.70;61.70;;;;;;5011774;28;20425;-64
2022/03/12 02:38:34;;;;;;;12.73;11.03;;;4.60;61.10;;;;;;5011785;28;20457;-66
2022/03/12 02:41:10;;;;;;;16.33;11.67;;;4.60;61.00;;;;;;5011811;28;20249;-66
2022/03/12 02:43:37;;;;;;;14.03;11.33;;;4.50;60.80;;;;;;5003737;28;20467;-66
2022/03/12 02:46:03;;;;;;;14.67;10.87;;;4.40;60.90;;;;;;5007902;28;20516;-66
2022/03/12 02:48:29;;;;;;;15.43;11.50;;;4.50;60.90;;;;;;5011753;28;20528;-66
2022/03/12 02:50:54;;;;;;;14.90;10.93;;;4.50;60.60;;;;;;5011798;28;20978;-66
2022/03/12 02:53:20;;;;;;;14.43;11.50;;;4.40;60.70;;;;;;5010202;28;20189;-66
2022/03/12 02:55:46;;;;;;;14.17;10.57;;;4.40;61.10;;;;;;5011866;28;20175;-64
2022/03/12 02:58:15;;;;;;;16.33;11.00;;;4.40;61.60;;;;;;5011121;28;21097;-66
2022/03/12 03:00:40;;;;;;;14.10;11.70;;;4.50;61.60;;;;;;5008182;28;20205;-64
2022/03/12 03:03:06;;;;;;;13.63;11.93;;;4.50;61.10;;;;;;5011231;28;20445;-66
2022/03/12 03:05:47;;;;;;;13.30;10.97;;;4.50;60.90;;;;;;5011123;28;20606;-66
2022/03/12 03:08:18;;;;;;;19.60;11.20;;;4.50;61.00;;;;;;5011580;28;20205;-66
2022/03/12 03:10:46;;;;;;;13.27;10.93;;;4.60;60.70;;;;;;5011562;28;20453;-65
2022/03/12 03:13:16;;;;;;;20.97;12.07;;;4.40;60.30;;;;;;5011269;28;20434;-65
2022/03/12 03:16:07;;;;;;;14.10;11.57;;;4.30;60.90;;;;;;4996059;28;20441;-65
2022/03/12 03:18:39;;;;;;;13.80;10.90;;;4.30;61.10;;;;;;5011575;28;20461;-66
2022/03/12 03:21:07;;;;;;;13.87;11.10;;;4.40;61.80;;;;;;5011039;28;20475;-65
2022/03/12 03:23:33;;;;;;;13.90;10.57;;;4.50;62.10;;;;;;5010912;28;20433;-65
2022/03/12 03:26:00;;;;;;;15.73;11.23;;;4.50;62.50;;;;;;5011363;28;20436;-65
2022/03/12 03:28:25;;;;;;;16.00;10.57;;;4.60;62.50;;;;;;5011095;28;20191;-66
2022/03/12 03:30:51;;;;;;;17.80;11.40;;;4.60;62.40;;;;;;5009394;28;20437;-67
2022/03/12 03:33:22;;;;;;;13.33;10.57;;;4.60;61.90;;;;;;4996230;28;20585;-66
2022/03/12 03:35:49;;;;;;;15.53;12.00;;;4.60;61.90;;;;;;5011264;28;20175;-66
2022/03/12 03:38:15;;;;;;;13.03;10.60;;;4.60;62.40;;;;;;5011172;28;20516;-66
2022/03/12 03:40:42;;;;;;;13.90;11.93;;;4.60;62.50;;;;;;5010908;28;20430;-66
2022/03/12 03:43:13;;;;;;;17.97;12.07;;;4.60;62.90;;;;;;5011238;28;20457;-66
2022/03/12 03:45:41;;;;;;;15.20;12.23;;;4.60;63.90;;;;;;5011319;28;20434;-65
2022/03/12 03:48:13;;;;;;;16.60;12.13;;;4.60;63.80;;;;;;5019557;28;20492;-66
2022/03/12 03:50:39;;;;;;;15.00;11.13;;;4.60;64.80;;;;;;5015803;28;20426;-65
2022/03/12 03:53:05;;;;;;;13.70;11.90;;;4.50;65.20;;;;;;5010883;28;20575;-65
2022/03/12 03:55:32;;;;;;;12.33;11.00;;;4.50;63.50;;;;;;5011228;28;20505;-67
2022/03/12 03:57:59;;;;;;;14.53;10.50;;;4.40;63.10;;;;;;5010812;28;20585;-66
2022/03/12 04:00:25;;;;;;;15.83;10.80;;;4.30;63.20;;;;;;5014373;28;20429;-65
2022/03/12 04:02:55;;;;;;;15.10;11.20;;;4.30;63.70;;;;;;5014471;28;20434;-65
2022/03/12 04:05:22;;;;;;;16.60;11.20;;;4.30;64.40;;;;;;4999781;28;20437;-67
2022/03/12 04:07:47;;;;;;;17.70;11.63;;;4.30;64.00;;;;;;5014569;28;20544;-65
2022/03/12 04:10:13;;;;;;;13.33;10.80;;;4.30;64.00;;;;;;5014616;28;20517;-66
2022/03/12 04:12:39;;;;;;;12.00;9.80;;;4.30;63.90;;;;;;5014109;28;20225;-65
2022/03/12 04:15:05;;;;;;;14.63;9.80;;;4.20;63.70;;;;;;5014240;28;20434;-66
2022/03/12 04:17:34;;;;;;;17.90;11.50;;;4.20;63.70;;;;;;5014447;28;20660;-66
2022/03/12 04:20:00;;;;;;;16.13;10.33;;;4.10;63.50;;;;;;5014020;28;20506;-64
2022/03/12 04:22:26;;;;;;;14.37;11.70;;;4.00;63.60;;;;;;5014096;28;20568;-66
2022/03/12 04:24:51;;;;;;;17.43;10.70;;;4.00;64.30;;;;;;5014190;28;20536;-66
2022/03/12 04:27:17;;;;;;;13.17;11.60;;;4.00;64.50;;;;;;5013945;28;20255;-65
2022/03/12 04:29:42;;;;;;;13.67;10.50;;;4.00;65.60;;;;;;5014067;28;20185;-65
2022/03/12 04:32:10;;;;;;;12.50;10.83;;;4.00;65.50;;;;;;5013420;28;20198;-66
2022/03/12 04:34:36;;;;;;;17.57;10.87;;;4.00;65.60;;;;;;5013507;28;20559;-66
2022/03/12 04:37:03;;;;;;;12.87;11.43;;;4.10;66.10;;;;;;5013956;28;20453;-66
2022/03/12 04:39:29;;;;;;;15.63;10.80;;;4.20;65.10;;;;;;5013529;28;20286;-66
2022/03/12 04:41:55;;;;;;;13.03;10.73;;;4.20;65.60;;;;;;5013944;28;20560;-66
2022/03/12 04:44:22;;;;;;;12.87;10.17;;;4.20;65.60;;;;;;5013330;28;20429;-66
2022/03/12 04:46:48;;;;;;;14.73;12.33;;;4.20;65.20;;;;;;5013707;28;20175;-66
2022/03/12 04:49:13;;;;;;;13.70;10.07;;;4.10;65.30;;;;;;5013354;28;20564;-67
2022/03/12 04:51:39;;;;;;;14.83;11.47;;;4.10;64.90;;;;;;5013598;28;20187;-66
2022/03/12 04:54:05;;;;;;;14.53;10.23;;;4.10;64.50;;;;;;5013431;28;20179;-66
2022/03/12 04:56:31;;;;;;;10.67;9.17;;;4.20;64.80;;;;;;5013433;28;20810;-64
2022/03/12 04:58:56;;;;;;;13.87;11.37;;;4.20;64.10;;;;;;5013354;28;20210;-65
2022/03/12 05:01:24;;;;;;;14.03;10.67;;;4.20;64.30;;;;;;5013414;28;20249;-65
2022/03/12 05:03:49;;;;;;;16.10;9.93;;;4.20;63.70;;;;;;5013069;28;20313;-65
2022/03/12 05:06:16;;;;;;;13.83;9.97;;;4.20;63.40;;;;;;5013278;28;20499;-66
2022/03/12 05:08:41;;;;;;;12.53;9.47;;;4.20;63.50;;;;;;5013217;28;20450;-66
2022/03/12 05:11:08;;;;;;;13.67;9.80;;;4.30;64.20;;;;;;5013001;28;20433;-66
2022/03/12 05:13:34;;;;;;;15.93;10.00;;;4.30;63.20;;;;;;5012702;28;20316;-66
2022/03/12 05:16:05;;;;;;;11.77;9.47;;;4.30;63.20;;;;;;5012535;28;20442;-66
2022/03/12 05:18:32;;;;;;;14.93;10.70;;;4.20;62.30;;;;;;5013241;28;20453;-65
2022/03/12 05:20:57;;;;;;;11.83;10.13;;;4.10;62.40;;;;;;5012924;28;20517;-65
2022/03/12 05:23:23;;;;;;;11.63;9.13;;;4.20;62.60;;;;;;5012558;28;20466;-65
2022/03/12 05:25:50;;;;;;;12.53;9.80;;;4.20;62.00;;;;;;5012998;28;20821;-64
2022/03/12 05:28:31;;;;;;;12.03;9.50;;;4.30;62.00;;;;;;5012967;28;20453;-65
2022/03/12 05:30:59;;;;;;;11.33;9.20;;;4.30;62.20;;;;;;5012735;28;20465;-66
2022/03/12 05:33:25;;;;;;;13.40;9.70;;;4.30;62.10;;;;;;5012755;28;20445;-67
2022/03/12 05:35:54;;;;;;;10.80;8.90;;;4.40;62.70;;;;;;5012629;28;20814;-67
2022/03/12 05:38:21;;;;;;;13.33;10.37;;;4.40;62.40;;;;;;5012653;28;20836;-66
2022/03/12 05:40:48;;;;;;;11.90;9.20;;;4.40;62.40;;;;;;5011118;28;20553;-65
2022/03/12 05:43:17;;;;;;;10.20;8.47;;;4.40;62.10;;;;;;5012043;28;20863;-66
2022/03/12 05:45:47;;;;;;;15.43;8.93;;;4.30;62.40;;;;;;5012146;28;20956;-66
2022/03/12 05:48:14;;;;;;;14.40;11.43;;;4.30;63.40;;;;;;5012800;28;20457;-66
2022/03/12 05:50:41;;;;;;;11.00;9.90;;;4.30;62.50;;;;;;5012652;28;20817;-66
2022/03/12 05:53:09;;;;;;;12.23;9.50;;;4.30;62.30;;;;;;5012225;28;20475;-67
2022/03/12 05:55:38;;;;;;;15.50;9.53;;;4.30;61.90;;;;;;5012193;28;20441;-66
2022/03/12 05:58:04;;;;;;;13.13;10.10;;;4.30;61.10;;;;;;5011950;28;21061;-66
2022/03/12 06:00:32;;;;;;;10.87;9.50;;;4.30;61.50;;;;;;5012394;28;20473;-67
2022/03/12 06:02:59;;;;;;;14.27;11.03;;;4.30;61.10;;;;;;5012096;28;20989;-67
2022/03/12 06:05:25;;;;;;;15.10;10.20;;;4.40;61.70;;;;;;5007965;28;20529;-65
2022/03/12 06:07:52;;;;;;;13.27;10.00;;;4.50;62.50;;;;;;5012160;28;20904;-67
2022/03/12 06:10:23;;;;;;;11.07;8.90;;;4.50;62.00;;;;;;5010092;28;20178;-66
2022/03/12 06:12:51;;;;;;;13.97;10.33;;;4.60;61.20;;;;;;5011947;28;20564;-66
2022/03/12 06:15:19;;;;;;;13.27;9.37;;;4.60;61.50;;;;;;5012131;28;20440;-67
2022/03/12 06:17:45;;;;;;;13.13;10.43;;;4.50;61.80;;;;;;5012121;28;20461;-65
2022/03/12 06:20:12;;;;;;;11.53;9.53;;;4.50;61.80;;;;;;5011302;28;20429;-66
2022/03/12 06:22:39;;;;;;;13.70;9.70;;;4.50;61.70;;;;;;5010438;28;20483;-66
2022/03/12 06:25:11;;;;;;;11.37;9.60;;;4.40;62.50;;;;;;5010580;28;20456;-65
2022/03/12 06:27:37;;;;;;;14.63;10.50;;;4.40;62.20;;;;;;5011784;28;20955;-65
2022/03/12 06:30:08;;;;;;;11.53;9.20;;;4.50;62.00;;;;;;5011661;28;20465;-65
2022/03/12 06:32:35;;;;;;;14.13;10.77;;;4.60;62.30;;;;;;5011443;28;20436;-67
2022/03/12 06:35:00;;;;;;;14.60;10.07;;;4.70;61.30;;;;;;5010780;28;20444;-67
2022/03/12 06:37:26;;;;;;;15.17;11.00;;;4.80;61.00;;;;;;5010909;28;20536;-66
2022/03/12 06:39:52;;;;;;;12.80;9.67;;;5.00;61.20;;;;;;5010920;28;20187;-66
2022/03/12 06:42:17;;;;;;;14.40;11.00;;;5.00;61.10;;;;;;5015543;28;20209;-66
2022/03/12 06:44:43;;;;;;;10.63;9.50;;;4.90;60.40;;;;;;5012394;28;20178;-66
2022/03/12 06:47:10;;;;;;;15.30;10.60;;;4.90;60.80;;;;;;4997149;28;20226;-65
2022/03/12 06:49:38;;;;;;;11.40;9.47;;;4.90;60.10;;;;;;4989093;28;20431;-66
2022/03/12 06:52:05;;;;;;;17.33;11.00;;;5.00;59.70;;;;;;4991932;28;20434;-66
2022/03/12 06:54:30;;;;;;;10.10;9.10;;;5.10;59.40;;;;;;4993110;28;20975;-66
2022/03/12 06:56:56;;;;;;;11.97;10.60;;;5.20;59.00;;;;;;4999313;28;20502;-66
2022/03/12 06:59:21;;;;;;;12.90;9.87;;;5.30;58.70;;;;;;5003315;28;20193;-65
2022/03/12 07:01:47;;;;;;;14.80;11.77;;;5.40;59.00;;;;;;4993625;28;20203;-65
2022/03/12 07:04:12;;;;;;;11.97;9.77;;;5.50;58.90;;;;;;4991935;28;20230;-70
2022/03/12 07:06:38;;;;;;;16.97;9.90;;;5.70;58.50;;;;;;4995492;28;20656;-66
2022/03/12 07:09:04;;;;;;;13.03;10.30;;;5.80;58.00;;;;;;4999414;28;20175;-68
2022/03/12 07:11:31;;;;;;;14.73;10.10;;;5.80;58.00;;;;;;4998251;28;20186;-65
2022/03/12 07:14:00;;;;;;;17.63;10.87;;;5.90;58.00;;;;;;4990702;28;20445;-64
2022/03/12 07:16:25;;;;;;;14.77;9.50;;;6.00;57.90;;;;;;4991663;28;20959;-65
2022/03/12 07:18:51;;;;;;;12.90;10.90;;;5.90;57.60;;;;;;4990811;28;20534;-64
2022/03/12 07:21:17;;;;;;;14.40;10.57;;;6.00;58.10;;;;;;4991477;28;20210;-66
2022/03/12 07:23:43;;;;;;;12.40;11.10;;;6.30;57.90;;;;;;4990936;28;20180;-66
2022/03/12 07:26:08;;;;;;;19.30;11.60;;;6.40;57.30;;;;;;4991651;28;20951;-66
2022/03/12 07:28:34;;;;;;;16.53;10.90;;;6.70;57.10;;;;;;4991685;28;20196;-65
2022/03/12 07:31:00;;;;;;;12.47;10.90;;;6.80;56.30;;;;;;4993914;28;20203;-66
2022/03/12 07:33:28;;;;;;;12.30;11.03;;;6.80;56.20;;;;;;4995180;28;20439;-66
2022/03/12 07:35:53;;;;;;;17.33;13.60;;;7.10;56.10;;;;;;4995362;28;20430;-66
2022/03/12 07:38:19;;;;;;;16.27;12.80;;;7.30;55.50;;;;;;4995326;28;20462;-65
2022/03/12 07:40:44;;;;;;;20.30;13.40;;;7.50;55.50;;;;;;4995004;28;20180;-66
2022/03/12 07:43:10;;;;;;;13.40;11.30;;;7.70;55.10;;;;;;4994805;28;20544;-68
2022/03/12 07:45:36;;;;;;;16.27;12.63;;;7.90;55.00;;;;;;4990522;28;20215;-68
2022/03/12 07:48:02;;;;;;;13.50;11.00;;;8.20;54.70;;;;;;4992290;28;20200;-68
2022/03/12 07:50:28;;;;;;;16.53;12.70;;;8.50;53.80;;;;;;4994890;28;20591;-68
2022/03/12 07:52:54;;;;;;;19.20;13.03;;;8.50;53.10;;;;;;4995048;28;20470;-68
2022/03/12 07:55:21;;;;;;;16.33;12.07;;;8.40;53.10;;;;;;4995085;28;20474;-68
2022/03/12 07:57:47;;;;;;;17.37;12.87;;;8.40;53.30;;;;;;4994918;28;20211;-69
2022/03/12 08:00:14;;;;;;;18.03;13.27;;;8.70;53.10;;;;;;4995268;28;20506;-69
2022/03/12 08:02:42;;;;;;;16.00;12.93;;;8.80;52.50;;;;;;4994570;28;20615;-66
2022/03/12 08:05:08;;;;;;;15.43;12.80;;;9.10;52.40;;;;;;4994295;28;20472;-66
2022/03/12 08:07:33;;;;;;;16.97;12.97;;;9.40;51.80;;;;;;4994420;28;20477;-65
2022/03/12 08:09:59;;;;;;;15.67;12.30;;;9.80;51.10;;;;;;4994100;28;20172;-65
2022/03/12 08:12:29;;;;;;;16.80;13.60;;;9.90;50.60;;;;;;4990763;28;20630;-66
2022/03/12 08:14:55;;;;;;;17.20;13.50;;;10.00;50.20;;;;;;4994868;28;20183;-66
2022/03/12 08:17:20;;;;;;;18.70;15.30;;;9.70;51.00;;;;;;4994598;28;20827;-64
2022/03/12 08:19:46;;;;;;;22.33;13.43;;;9.50;50.90;;;;;;4994527;28;20187;-65
2022/03/12 08:22:13;;;;;;;16.60;14.03;;;9.60;51.70;;;;;;4994282;28;20218;-66
2022/03/12 08:24:38;;;;;;;15.13;13.53;;;9.90;51.00;;;;;;4994480;28;20226;-66
2022/03/12 08:27:07;;;;;;;16.30;14.00;;;10.30;50.50;;;;;;4994496;28;20455;-65
2022/03/12 08:29:33;;;;;;;17.63;13.83;;;10.40;50.50;;;;;;4994323;28;20230;-66
2022/03/12 08:31:58;;;;;;;18.43;13.73;;;10.70;50.00;;;;;;4994178;28;20434;-66
2022/03/12 08:34:24;;;;;;;22.47;13.97;;;10.90;49.50;;;;;;4993982;28;20203;-70
2022/03/12 08:36:50;;;;;;;17.77;14.30;;;11.00;50.00;;;;;;4994545;28;20175;-64
2022/03/12 08:39:16;;;;;;;19.50;14.30;;;10.70;49.70;;;;;;4993852;28;20438;-65
2022/03/12 08:41:43;;;;;;;16.23;14.10;;;11.30;49.20;;;;;;4993314;28;20674;-65
2022/03/12 08:44:10;;;;;;;16.57;13.80;;;11.90;48.80;;;;;;4993981;28;20430;-65
2022/03/12 08:46:36;;;;;;;18.50;14.43;;;12.50;47.50;;;;;;4992804;28;20465;-63
2022/03/12 08:49:03;;;;;;;16.57;14.87;;;13.10;46.60;;;;;;4993835;28;20509;-63
2022/03/12 08:51:29;;;;;;;15.77;14.17;;;12.50;46.30;;;;;;4994102;28;20434;-63
2022/03/12 08:53:54;;;;;;;20.20;17.00;;;11.70;47.40;;;;;;4992598;28;20785;-62
2022/03/12 08:56:20;;;;;;;17.77;15.20;;;11.50;47.90;;;;;;4993813;28;20650;-62
2022/03/12 08:58:47;;;;;;;17.97;15.07;;;11.30;48.60;;;;;;4993594;28;20215;-63
2022/03/12 09:01:13;;;;;;;18.27;13.67;;;12.00;48.30;;;;;;4994009;28;20211;-62
2022/03/12 09:03:38;;;;;;;17.30;14.77;;;11.80;47.60;;;;;;4993567;28;20435;-63
2022/03/12 09:06:04;;;;;;;20.23;16.60;;;11.90;47.60;;;;;;4993854;28;20501;-63
2022/03/12 09:08:30;;;;;;;17.27;15.00;;;12.80;47.00;;;;;;4993826;28;20229;-63
2022/03/12 09:10:55;;;;;;;21.83;16.40;;;13.20;45.90;;;;;;4993734;28;20438;-63
2022/03/12 09:13:22;;;;;;;23.30;17.00;;;13.10;44.90;;;;;;4993455;28;20199;-63
2022/03/12 09:15:48;;;;;;;16.77;14.80;;;13.20;45.10;;;;;;4993070;28;20274;-63
2022/03/12 09:18:14;;;;;;;21.97;15.20;;;13.40;44.90;;;;;;4993782;28;20537;-63
2022/03/12 09:20:46;;;;;;;18.97;16.97;;;14.20;44.00;;;;;;4992906;28;20665;-64
2022/03/12 09:23:17;;;;;;;20.40;17.07;;;15.90;42.70;;;;;;4993465;28;20458;-64
2022/03/12 09:25:43;;;;;;;17.73;16.10;;;16.30;40.30;;;;;;4993255;28;20957;-64
2022/03/12 09:28:09;;;;;;;25.23;17.50;;;16.10;40.70;;;;;;4993263;28;20470;-64
2022/03/12 09:30:35;;;;;;;20.93;17.13;;;15.70;40.60;;;;;;4993225;28;20489;-63
2022/03/12 09:33:01;;;;;;;21.27;18.97;;;14.80;41.30;;;;;;4993131;28;20438;-66
2022/03/12 09:35:28;;;;;;;19.73;17.47;;;14.70;41.70;;;;;;4993311;28;20183;-64
2022/03/12 09:37:55;;;;;;;18.60;16.67;;;14.60;41.70;;;;;;4993177;28;20585;-64
2022/03/12 09:40:21;;;;;;;17.87;16.13;;;15.10;42.40;;;;;;4993269;28;20504;-64
2022/03/12 09:42:47;;;;;;;20.50;16.37;;;16.00;41.00;;;;;;4992595;28;20478;-64
2022/03/12 09:45:14;;;;;;;17.97;16.17;;;16.70;40.00;;;;;;4992605;28;20431;-64
2022/03/12 09:47:40;;;;;;;21.20;17.67;;;17.00;38.90;;;;;;4992779;28;20581;-64
2022/03/12 09:50:07;;;;;;;21.13;16.60;;;17.90;38.60;;;;;;4993162;28;20431;-64
2022/03/12 09:52:33;;;;;;;19.27;17.33;;;18.90;37.10;;;;;;4992614;28;20497;-63
2022/03/12 09:54:58;;;;;;;20.53;17.77;;;18.50;36.70;;;;;;4993121;28;20442;-65
2022/03/12 09:57:24;;;;;;;20.03;17.00;;;19.40;36.80;;;;;;4992496;28;20532;-64
2022/03/12 09:59:49;;;;;;;24.93;18.93;;;19.80;35.90;;;;;;4992981;28;20277;-65
2022/03/12 10:02:15;;;;;;;21.93;18.33;;;20.50;35.90;;;;;;4992673;28;20200;-65
2022/03/12 10:04:41;;;;;;;20.77;18.67;;;21.40;34.70;;;;;;4993173;28;20660;-66
2022/03/12 10:07:08;;;;;;;20.43;18.53;;;22.30;33.30;;;;;;4992652;28;20203;-66
2022/03/12 10:09:34;;;;;;;20.20;17.50;;;22.50;32.40;;;;;;4992807;28;20172;-65
2022/03/12 10:12:00;;;;;;;21.73;18.43;;;22.30;31.90;;;;;;4992314;28;20890;-65
2022/03/12 10:14:26;;;;;;;21.23;19.10;;;22.70;32.00;;;;;;4993020;28;20215;-65
2022/03/12 10:16:52;;;;;;;22.43;17.93;;;22.40;31.60;;;;;;4993290;28;20473;-65
2022/03/12 10:19:19;;;;;;;19.90;18.00;;;21.10;32.80;;;;;;4992697;28;20188;-67
2022/03/12 10:21:45;;;;;;;22.43;19.33;;;21.30;33.40;;;;;;4992654;28;20529;-67
2022/03/12 10:24:12;;;;;;;20.77;18.63;;;21.60;32.60;;;;;;4992010;28;20445;-70
2022/03/12 10:26:39;;;;;;;20.77;18.77;;;22.30;32.20;;;;;;4992497;28;20439;-71
2022/03/12 10:29:06;;;;;;;19.33;17.63;;;22.90;31.90;;;;;;4992300;28;20427;-67
2022/03/12 10:31:32;;;;;;;20.20;18.10;;;23.30;31.50;;;;;;4992482;28;20446;-69
2022/03/12 10:34:20;;;;;;;20.60;18.70;;;23.40;31.20;;;;;;4991898;28;20546;-68
2022/03/12 10:36:47;;;;;;;20.43;18.50;;;23.60;31.50;;;;;;4991559;28;20456;-68
2022/03/12 10:39:12;;;;;;;19.93;18.00;;;23.90;30.50;;;;;;4991987;28;20533;-65
2022/03/12 10:41:39;;;;;;;20.67;18.77;;;22.90;31.40;;;;;;4992383;28;20597;-67
2022/03/12 10:44:05;;;;;;;19.33;17.13;;;23.10;31.30;;;;;;4991259;28;20194;-66
2022/03/12 10:46:34;;;;;;;20.87;18.87;;;23.40;30.60;;;;;;4992337;28;20430;-67
2022/03/12 10:49:00;;;;;;;20.40;18.27;;;23.30;31.40;;;;;;4992235;28;20545;-65
2022/03/12 10:51:28;;;;;;;20.80;17.80;;;24.10;31.10;;;;;;4991901;28;20943;-66
2022/03/12 10:54:05;;;;;;;20.13;18.27;;;24.70;30.00;;;;;;4991673;28;20959;-66
2022/03/12 10:56:48;;;;;;;20.83;18.63;;;25.10;29.80;;;;;;4991791;28;20477;-67
2022/03/12 10:59:19;;;;;;;19.87;17.90;;;23.70;30.00;;;;;;4992301;28;20442;-68
2022/03/12 11:01:47;;;;;;;19.83;17.27;;;24.20;30.90;;;;;;4991622;28;20467;-66
2022/03/12 11:04:22;;;;;;;19.33;17.40;;;24.90;30.20;;;;;;4991623;28;20525;-66
2022/03/12 11:06:49;;;;;;;18.83;16.87;;;24.20;30.60;;;;;;4995476;28;20453;-66
2022/03/12 11:09:19;;;;;;;19.07;17.27;;;22.60;31.50;;;;;;4995809;28;20846;-66
2022/03/12 11:11:46;;;;;;;22.83;20.73;;;22.20;32.30;;;;;;4995856;28;20864;-67
2022/03/12 11:14:20;;;;;;;17.90;16.30;;;23.40;32.50;;;;;;4995625;28;20518;-67
2022/03/12 11:16:55;;;;;;;24.23;17.00;;;24.40;31.10;;;;;;4995276;28;20451;-69
2022/03/12 11:19:41;;;;;;;15.60;14.00;;;25.10;30.70;;;;;;4994289;28;20429;-67
2022/03/12 11:22:12;;;;;;;18.57;16.87;;;26.40;30.50;;;;;;4994696;28;20203;-67
2022/03/12 11:24:52;;;;;;;18.90;17.03;;;27.40;30.00;;;;;;4995880;28;20847;-67
2022/03/12 11:27:28;;;;;;;16.00;14.70;;;27.90;29.10;;;;;;4994213;28;20549;-66
2022/03/12 11:30:10;;;;;;;16.40;14.90;;;27.70;29.10;;;;;;4995824;28;20834;-66
2022/03/12 11:32:42;;;;;;;18.40;16.77;;;27.90;29.40;;;;;;4995336;28;20450;-69
2022/03/12 11:35:10;;;;;;;17.93;16.37;;;28.40;29.10;;;;;;4995619;28;20442;-67
2022/03/12 11:37:38;;;;;;;18.97;17.03;;;28.40;28.50;;;;;;4995001;28;20538;-68
2022/03/12 11:40:08;;;;;;;18.97;17.03;;;29.40;28.10;;;;;;4995489;28;20440;-66
2022/03/12 11:42:35;;;;;;;19.17;17.63;;;29.70;27.40;;;;;;4994791;28;20465;-68
2022/03/12 11:45:04;;;;;;;19.43;17.67;;;29.40;27.50;;;;;;4995153;28;20462;-64
2022/03/12 11:47:31;;;;;;;21.37;19.10;;;29.50;27.50;;;;;;4995094;28;20485;-66
2022/03/12 11:50:01;;;;;;;18.57;16.90;;;29.20;27.80;;;;;;4995086;28;20461;-66
2022/03/12 11:52:27;;;;;;;18.90;17.30;;;29.60;27.70;;;;;;4994705;28;20466;-66
2022/03/12 11:54:54;;;;;;;16.83;15.53;;;29.70;27.50;;;;;;4995110;28;20433;-66
2022/03/12 11:57:30;;;;;;;18.90;17.23;;;30.30;27.50;;;;;;4993361;28;20454;-66
2022/03/12 11:59:57;;;;;;;16.57;14.97;;;30.50;27.40;;;;;;4995486;28;20418;-64
2022/03/12 12:02:29;;;;;;;18.07;16.17;;;29.80;28.10;;;;;;4994015;28;20884;-65
2022/03/12 12:04:56;;;;;;;17.77;16.07;;;29.90;27.80;;;;;;4994668;28;20857;-67
2022/03/12 12:07:23;;;;;;;17.20;15.60;;;30.30;27.90;;;;;;4995178;28;20466;-65
2022/03/12 12:09:49;;;;;;;14.13;12.97;;;30.30;28.00;;;;;;4994091;28;20431;-66
2022/03/12 12:12:16;;;;;;;15.83;14.53;;;30.60;27.90;;;;;;4994472;28;20604;-66
2022/03/12 12:14:43;;;;;;;15.70;14.10;;;31.20;27.40;;;;;;4994056;28;20176;-66
2022/03/12 12:17:10;;;;;;;15.30;14.10;;;31.40;27.50;;;;;;4993449;28;20451;-65
2022/03/12 12:19:35;;;;;;;13.37;12.17;;;31.00;27.70;;;;;;4994914;28;20426;-65
2022/03/12 12:22:02;;;;;;;10.40;9.40;;;31.10;28.20;;;;;;4994367;28;20434;-68
2022/03/12 12:24:33;;;;;;;10.10;9.40;;;31.20;28.20;;;;;;4994405;28;20186;-67
2022/03/12 12:27:00;;;;;;;9.90;9.10;;;30.90;28.30;;;;;;4994777;28;20434;-66
2022/03/12 12:29:41;;;;;;;9.67;8.73;;;31.20;28.50;;;;;;4994595;28;20446;-67
2022/03/12 12:32:08;;;;;;;9.27;8.47;;;31.40;28.30;;;;;;4997493;28;20461;-75
2022/03/12 12:34:35;;;;;;;9.10;8.40;;;30.50;28.50;;;;;;4994643;28;20431;-71
2022/03/12 12:37:02;;;;;;;10.77;9.90;;;29.70;29.00;;;;;;4991054;28;20459;-69